Time;durP1;ratioP1;P1;durP2;ratioP2;P2;SDS_P1;SDS_P2;PMS_P1;PMS_P2;Temp;Humidity;BMP_temperature;BMP_pressure;BME280_temperature;BME280_humidity;BME280_pressure;Samples;Min_cycle;Max_cycle;Signal;HPM_P1;HPM_P2
2021/03/26 00:01:30;;;;;;;15.23;7.25;;;10.50;55.10;;;;;;5090873;28;20035;-84
2021/03/26 00:03:57;;;;;;;13.25;7.43;;;10.40;55.10;;;;;;5065539;28;20498;-85
2021/03/26 00:06:27;;;;;;;14.65;7.28;;;10.40;55.20;;;;;;5064691;28;20082;-85
2021/03/26 00:08:53;;;;;;;15.45;8.57;;;10.30;55.30;;;;;;5090842;28;20028;-84
2021/03/26 00:11:20;;;;;;;15.00;7.72;;;10.20;55.30;;;;;;5062465;28;20506;-85
2021/03/26 00:13:46;;;;;;;12.32;7.15;;;10.10;55.60;;;;;;5072543;28;20019;-85
2021/03/26 00:16:12;;;;;;;14.73;7.93;;;10.00;56.00;;;;;;5078686;28;20131;-85
2021/03/26 00:18:39;;;;;;;12.02;7.15;;;10.00;56.10;;;;;;5069995;28;20070;-85
2021/03/26 00:21:05;;;;;;;22.35;8.80;;;10.00;56.20;;;;;;5076017;28;20032;-85
2021/03/26 00:23:31;;;;;;;16.00;8.77;;;9.90;56.20;;;;;;5072595;28;20028;-84
2021/03/26 00:25:57;;;;;;;15.85;8.60;;;9.80;56.30;;;;;;5075869;28;20036;-85
2021/03/26 00:28:23;;;;;;;15.23;7.53;;;9.70;56.50;;;;;;5057033;28;20039;-85
2021/03/26 00:30:49;;;;;;;13.90;8.10;;;9.70;56.80;;;;;;5095039;28;20078;-84
2021/03/26 00:33:14;;;;;;;15.00;7.88;;;9.70;57.00;;;;;;5068744;28;20024;-86
2021/03/26 00:35:40;;;;;;;16.38;8.10;;;9.70;56.90;;;;;;5075178;28;20111;-85
2021/03/26 00:38:06;;;;;;;17.73;8.15;;;9.70;56.90;;;;;;5081837;28;20028;-86
2021/03/26 00:40:32;;;;;;;12.65;7.93;;;9.70;57.10;;;;;;5072741;28;20444;-85
2021/03/26 00:42:58;;;;;;;13.95;8.18;;;9.70;57.20;;;;;;5077280;28;20025;-86
2021/03/26 00:45:33;;;;;;;14.40;7.75;;;9.70;57.10;;;;;;5072325;28;20158;-85
2021/03/26 00:48:00;;;;;;;11.90;8.00;;;9.70;57.40;;;;;;5076159;28;20092;-85
2021/03/26 00:50:37;;;;;;;13.30;8.18;;;9.60;57.20;;;;;;5079249;28;20149;-86
2021/03/26 00:53:07;;;;;;;20.27;8.93;;;9.60;57.60;;;;;;5084051;28;20031;-85
2021/03/26 00:55:33;;;;;;;13.43;8.73;;;9.60;57.60;;;;;;5083043;28;20028;-86
2021/03/26 00:57:58;;;;;;;15.15;8.85;;;9.50;57.60;;;;;;5070236;28;20346;-85
2021/03/26 01:00:26;;;;;;;15.23;8.88;;;9.50;57.80;;;;;;5068228;28;20035;-86
2021/03/26 01:02:52;;;;;;;13.60;8.35;;;9.40;57.90;;;;;;5095190;28;20034;-86
2021/03/26 01:05:24;;;;;;;14.80;8.38;;;9.30;58.00;;;;;;5072594;28;20371;-85
2021/03/26 01:07:49;;;;;;;18.40;8.60;;;9.30;58.40;;;;;;5075707;28;20028;-87
2021/03/26 01:10:19;;;;;;;13.65;8.07;;;9.30;58.30;;;;;;5096323;28;20049;-85
2021/03/26 01:12:44;;;;;;;14.98;8.30;;;9.30;58.60;;;;;;5091765;28;20384;-86
2021/03/26 01:15:12;;;;;;;13.40;7.75;;;9.30;58.50;;;;;;5059706;28;20027;-86
2021/03/26 01:17:39;;;;;;;13.27;7.65;;;9.30;58.50;;;;;;5060817;28;20020;-86
2021/03/26 01:20:16;;;;;;;18.48;7.80;;;9.20;58.70;;;;;;5067977;28;20028;-86
2021/03/26 01:22:42;;;;;;;15.27;8.10;;;9.10;58.80;;;;;;5077932;28;20512;-86
2021/03/26 01:25:20;;;;;;;17.17;8.02;;;9.20;59.00;;;;;;5076569;28;20028;-85
2021/03/26 01:27:46;;;;;;;14.48;8.35;;;9.20;59.20;;;;;;5069419;28;20108;-85
2021/03/26 01:30:15;;;;;;;16.63;8.40;;;9.20;59.10;;;;;;5082350;28;20096;-85
2021/03/26 01:32:40;;;;;;;19.33;8.48;;;9.20;59.10;;;;;;5105235;28;20024;-85
2021/03/26 01:35:08;;;;;;;12.07;7.43;;;9.20;59.40;;;;;;5084717;28;20087;-86
2021/03/26 01:37:34;;;;;;;18.10;8.85;;;9.10;59.00;;;;;;5066762;28;20052;-85
2021/03/26 01:40:00;;;;;;;12.93;7.97;;;9.10;59.20;;;;;;5085831;28;20492;-86
2021/03/26 01:42:32;;;;;;;15.13;8.70;;;9.10;59.10;;;;;;5109124;28;20093;-86
2021/03/26 01:44:59;;;;;;;13.10;8.13;;;9.10;59.50;;;;;;5086623;28;20135;-86
2021/03/26 01:47:26;;;;;;;12.95;7.50;;;9.10;59.40;;;;;;5084272;28;20040;-86
2021/03/26 01:49:52;;;;;;;14.65;8.35;;;9.10;59.60;;;;;;5084632;28;20567;-86
2021/03/26 01:52:17;;;;;;;13.18;7.55;;;9.20;59.70;;;;;;5093618;28;20041;-85
2021/03/26 01:54:43;;;;;;;9.88;7.03;;;9.20;59.60;;;;;;5074749;28;20108;-85
2021/03/26 01:57:09;;;;;;;14.13;7.55;;;9.30;59.70;;;;;;5105490;28;20028;-85
2021/03/26 01:59:36;;;;;;;12.20;7.65;;;9.30;59.60;;;;;;5062152;28;20032;-84
2021/03/26 02:02:06;;;;;;;12.68;7.47;;;9.50;59.60;;;;;;5070156;28;20484;-85
2021/03/26 02:04:39;;;;;;;12.20;7.30;;;9.40;59.60;;;;;;5059565;28;20028;-84
2021/03/26 02:07:05;;;;;;;14.18;8.05;;;9.40;59.50;;;;;;5060732;28;20020;-85
2021/03/26 02:09:37;;;;;;;14.02;7.60;;;9.40;59.50;;;;;;5089424;28;20024;-85
2021/03/26 02:12:08;;;;;;;12.83;7.87;;;9.40;60.20;;;;;;5063450;28;20055;-86
2021/03/26 02:14:41;;;;;;;12.35;7.60;;;9.40;59.70;;;;;;5075560;28;20051;-84
2021/03/26 02:17:10;;;;;;;16.25;7.65;;;9.30;59.50;;;;;;5065193;28;20021;-85
2021/03/26 02:19:39;;;;;;;13.10;7.22;;;9.20;59.30;;;;;;5091469;28;20067;-85
2021/03/26 02:22:07;;;;;;;12.95;7.53;;;9.10;59.50;;;;;;5062229;28;20020;-85
2021/03/26 02:24:33;;;;;;;14.40;7.97;;;9.00;59.80;;;;;;5073973;28;20108;-85
2021/03/26 02:27:07;;;;;;;12.30;7.50;;;8.90;59.80;;;;;;5090610;28;20031;-84
2021/03/26 02:29:34;;;;;;;13.95;7.72;;;8.80;60.10;;;;;;5088232;28;20029;-85
2021/03/26 02:32:18;;;;;;;13.25;7.45;;;8.80;60.10;;;;;;5074649;28;20027;-84
2021/03/26 02:35:12;;;;;;;14.23;7.35;;;8.80;60.30;;;;;;5068349;28;20443;-85
2021/03/26 02:37:42;;;;;;;14.55;7.30;;;8.70;60.20;;;;;;5076046;28;20023;-85
2021/03/26 02:40:14;;;;;;;16.05;8.32;;;8.70;60.20;;;;;;5074357;28;20028;-85
2021/03/26 02:42:40;;;;;;;14.25;7.75;;;8.70;60.50;;;;;;5085457;28;20042;-86
2021/03/26 02:45:09;;;;;;;13.90;7.68;;;8.70;60.40;;;;;;5066972;28;20482;-85
2021/03/26 02:47:41;;;;;;;12.77;7.38;;;8.70;60.30;;;;;;5078307;28;20032;-85
2021/03/26 02:50:30;;;;;;;13.85;8.00;;;8.60;60.60;;;;;;5073795;28;20021;-85
2021/03/26 02:53:15;;;;;;;14.05;7.40;;;8.60;60.70;;;;;;5065258;28;20024;-84
2021/03/26 02:56:04;;;;;;;12.85;7.65;;;8.60;60.80;;;;;;5061308;28;20083;-84
2021/03/26 02:58:34;;;;;;;11.57;7.28;;;8.60;60.70;;;;;;5062490;28;20028;-85
2021/03/26 03:01:18;;;;;;;14.55;7.72;;;8.50;60.70;;;;;;5074951;28;20028;-85
2021/03/26 03:03:46;;;;;;;12.07;7.47;;;8.50;60.90;;;;;;5065340;28;20101;-84
2021/03/26 03:06:18;;;;;;;12.73;7.30;;;8.50;60.90;;;;;;5061565;28;20537;-85
2021/03/26 03:08:45;;;;;;;12.63;7.65;;;8.40;60.90;;;;;;5071946;28;20024;-85
2021/03/26 03:11:18;;;;;;;16.23;7.93;;;8.40;60.80;;;;;;5063576;28;20513;-84
2021/03/26 03:13:53;;;;;;;14.20;8.07;;;8.30;60.90;;;;;;5066706;28;20134;-84
2021/03/26 03:16:24;;;;;;;15.82;7.80;;;8.10;61.10;;;;;;5078097;28;20109;-84
2021/03/26 03:19:35;;;;;;;15.27;8.27;;;8.00;61.30;;;;;;5068184;28;20058;-85
2021/03/26 03:22:13;;;;;;;12.07;7.55;;;7.80;61.50;;;;;;5012205;28;20053;-85
2021/03/26 03:24:42;;;;;;;13.85;7.82;;;7.80;61.60;;;;;;5078886;28;20371;-84
2021/03/26 03:27:42;;;;;;;12.38;7.80;;;7.60;61.70;;;;;;5071859;28;20114;-85
2021/03/26 03:30:33;;;;;;;12.80;7.50;;;7.60;62.00;;;;;;5077346;28;20023;-84
2021/03/26 03:33:21;;;;;;;11.82;7.65;;;7.50;62.00;;;;;;5074773;28;20032;-85
2021/03/26 03:36:00;;;;;;;12.93;6.97;;;7.60;62.10;;;;;;5071569;28;20421;-85
2021/03/26 03:38:33;;;;;;;11.48;7.10;;;7.50;62.00;;;;;;5067979;28;20063;-86
2021/03/26 03:41:07;;;;;;;13.85;7.35;;;7.50;62.10;;;;;;5075377;28;20039;-85
2021/03/26 03:43:47;;;;;;;16.33;6.90;;;7.50;62.10;;;;;;5072177;28;20062;-84
2021/03/26 03:46:16;;;;;;;10.13;6.55;;;7.50;62.10;;;;;;5076035;28;20059;-84
2021/03/26 03:49:11;;;;;;;12.05;6.47;;;7.50;62.00;;;;;;5075950;28;20053;-85
2021/03/26 03:51:54;;;;;;;11.38;7.13;;;7.40;62.00;;;;;;5060747;28;20051;-85
2021/03/26 03:54:38;;;;;;;11.75;6.60;;;7.40;62.00;;;;;;5060370;28;20055;-85
2021/03/26 03:57:10;;;;;;;14.18;7.90;;;7.30;62.60;;;;;;5067200;28;20020;-84
2021/03/26 03:59:58;;;;;;;12.57;7.97;;;7.30;62.20;;;;;;5075408;28;20032;-84
2021/03/26 04:02:56;;;;;;;13.57;8.10;;;7.30;62.20;;;;;;5064146;28;20063;-85
2021/03/26 04:05:28;;;;;;;16.85;8.55;;;7.30;62.40;;;;;;5030456;28;20355;-84
2021/03/26 04:08:31;;;;;;;17.25;8.27;;;7.20;62.50;;;;;;5094610;28;20116;-84
2021/03/26 04:11:11;;;;;;;13.77;8.07;;;7.20;62.60;;;;;;5077679;28;20394;-84
2021/03/26 04:13:41;;;;;;;16.50;8.15;;;7.20;62.70;;;;;;5104684;22;20082;-68
2021/03/26 04:16:11;;;;;;;12.20;7.95;;;7.20;62.70;;;;;;5041521;28;20361;-65
2021/03/26 04:18:46;;;;;;;15.30;8.20;;;7.20;62.80;;;;;;5054650;28;20066;-65
2021/03/26 04:21:18;;;;;;;11.43;7.35;;;7.20;62.70;;;;;;5058354;28;20049;-65
2021/03/26 04:23:53;;;;;;;14.95;8.05;;;7.20;62.80;;;;;;5052766;28;20542;-65
2021/03/26 04:26:42;;;;;;;15.30;8.15;;;7.20;62.80;;;;;;5054892;28;20032;-65
2021/03/26 04:29:33;;;;;;;15.15;8.98;;;7.20;62.50;;;;;;5038881;28;20052;-64
2021/03/26 04:32:13;;;;;;;14.55;8.32;;;7.20;62.60;;;;;;5048418;28;20115;-64
2021/03/26 04:34:41;;;;;;;15.13;8.70;;;7.20;62.70;;;;;;5063371;28;20070;-65
2021/03/26 04:37:30;;;;;;;17.20;8.90;;;7.20;62.70;;;;;;5063225;28;20056;-64
2021/03/26 04:40:14;;;;;;;13.25;8.30;;;7.10;62.80;;;;;;5054418;28;20025;-65
2021/03/26 04:42:43;;;;;;;16.38;8.63;;;7.10;62.80;;;;;;5055206;28;20023;-65
2021/03/26 04:45:34;;;;;;;16.80;9.38;;;7.10;62.70;;;;;;5053406;28;20027;-64
2021/03/26 04:48:09;;;;;;;17.10;8.90;;;7.10;62.80;;;;;;5017199;28;20344;-64
2021/03/26 04:51:00;;;;;;;16.20;8.57;;;7.00;62.90;;;;;;5044417;28;20130;-64
2021/03/26 04:53:38;;;;;;;15.40;9.32;;;6.90;63.10;;;;;;5036335;28;20074;-65
2021/03/26 04:56:09;;;;;;;14.25;9.15;;;6.90;63.10;;;;;;5050789;28;20557;-65
2021/03/26 04:58:38;;;;;;;17.50;9.55;;;6.90;63.30;;;;;;5042498;28;20041;-65
2021/03/26 05:01:12;;;;;;;14.98;9.15;;;6.90;63.30;;;;;;5055249;28;20040;-65
2021/03/26 05:03:42;;;;;;;16.83;9.52;;;6.90;63.90;;;;;;5051147;28;20035;-65
2021/03/26 05:06:24;;;;;;;21.00;9.43;;;6.80;63.50;;;;;;5042728;28;20021;-65
2021/03/26 05:09:00;;;;;;;17.13;8.82;;;6.80;63.60;;;;;;5036766;28;20124;-65
2021/03/26 05:11:32;;;;;;;16.50;9.90;;;6.80;63.50;;;;;;5057730;28;20070;-64
2021/03/26 05:14:03;;;;;;;19.27;9.13;;;6.80;63.60;;;;;;5049424;28;20047;-64
2021/03/26 05:16:51;;;;;;;17.15;9.80;;;6.80;63.60;;;;;;5059267;28;20036;-64
2021/03/26 05:19:40;;;;;;;15.77;9.32;;;6.70;63.60;;;;;;5055685;28;20020;-64
2021/03/26 05:22:31;;;;;;;16.30;9.27;;;6.60;63.70;;;;;;5070732;28;20594;-64
2021/03/26 05:25:10;;;;;;;20.27;10.35;;;6.40;63.80;;;;;;5069829;28;20032;-64
2021/03/26 05:27:36;;;;;;;20.35;10.35;;;6.30;64.10;;;;;;5072966;28;20476;-65
2021/03/26 05:30:03;;;;;;;20.10;9.60;;;6.20;64.20;;;;;;5062480;28;20042;-65
2021/03/26 05:32:44;;;;;;;15.77;9.52;;;6.20;64.40;;;;;;5048342;28;20036;-65
2021/03/26 05:35:26;;;;;;;17.15;9.50;;;6.20;64.70;;;;;;5045107;28;20029;-65
2021/03/26 05:38:14;;;;;;;19.95;9.77;;;6.30;64.90;;;;;;5049562;28;20566;-65
2021/03/26 05:40:49;;;;;;;16.70;8.30;;;6.40;64.50;;;;;;5049261;28;20047;-64
2021/03/26 05:43:38;;;;;;;20.35;9.45;;;6.30;64.30;;;;;;5053756;28;20445;-65
2021/03/26 05:46:32;;;;;;;16.35;9.68;;;6.30;64.40;;;;;;5048758;28;20033;-65
2021/03/26 05:49:07;;;;;;;15.10;9.05;;;6.30;64.60;;;;;;5049547;28;20017;-65
2021/03/26 05:51:44;;;;;;;16.80;9.40;;;6.40;64.60;;;;;;5053931;28;20024;-64
2021/03/26 05:54:13;;;;;;;15.10;9.00;;;6.40;64.70;;;;;;5043535;28;20116;-64
2021/03/26 05:57:02;;;;;;;14.85;8.75;;;6.40;64.60;;;;;;5053290;28;20025;-64
2021/03/26 05:59:39;;;;;;;13.05;8.45;;;6.40;64.50;;;;;;5062668;28;20051;-66
2021/03/26 06:02:24;;;;;;;14.82;8.57;;;6.30;64.60;;;;;;5066882;28;20348;-64
2021/03/26 06:05:18;;;;;;;21.20;8.52;;;6.30;64.60;;;;;;5035210;28;20032;-65
2021/03/26 06:08:15;;;;;;;13.55;8.07;;;6.30;64.80;;;;;;5035798;28;20095;-66
2021/03/26 06:11:09;;;;;;;13.57;7.70;;;6.40;64.70;;;;;;5035926;28;20127;-65
2021/03/26 06:14:08;;;;;;;12.48;7.15;;;6.40;64.60;;;;;;5048559;28;20037;-64
2021/03/26 06:16:52;;;;;;;13.85;7.75;;;6.30;64.50;;;;;;5054631;28;20071;-65
2021/03/26 06:19:30;;;;;;;12.50;7.63;;;6.30;64.60;;;;;;5054950;28;20055;-65
2021/03/26 06:22:02;;;;;;;14.70;7.32;;;6.30;64.90;;;;;;5054629;28;20024;-65
2021/03/26 06:25:05;;;;;;;14.48;7.82;;;6.40;65.10;;;;;;5051186;28;20429;-65
2021/03/26 06:27:41;;;;;;;14.25;7.93;;;6.50;64.90;;;;;;5054342;28;20029;-66
2021/03/26 06:30:11;;;;;;;12.95;7.55;;;6.70;64.80;;;;;;5059978;28;20020;-66
2021/03/26 06:32:58;;;;;;;13.90;7.38;;;6.70;64.60;;;;;;5059381;28;20506;-66
2021/03/26 06:36:04;;;;;;;15.88;8.18;;;6.90;64.90;;;;;;5061294;28;20048;-65
2021/03/26 06:38:43;;;;;;;13.95;7.72;;;7.00;64.90;;;;;;5034553;28;20029;-65
2021/03/26 06:41:30;;;;;;;17.52;7.40;;;7.20;64.70;;;;;;5044560;28;20047;-66
2021/03/26 06:44:14;;;;;;;12.90;6.95;;;7.30;64.70;;;;;;5049047;28;20038;-64
2021/03/26 06:47:02;;;;;;;16.90;7.32;;;7.30;64.40;;;;;;5052366;28;20435;-65
2021/03/26 06:49:51;;;;;;;17.08;6.90;;;7.40;64.40;;;;;;5053208;28;20025;-65
2021/03/26 06:52:25;;;;;;;11.23;7.13;;;7.50;64.60;;;;;;5042563;28;20115;-65
2021/03/26 06:55:23;;;;;;;15.80;7.95;;;7.60;64.80;;;;;;5047919;28;20017;-64
2021/03/26 06:58:12;;;;;;;15.38;9.40;;;7.80;64.20;;;;;;5039329;28;20171;-65
2021/03/26 07:01:01;;;;;;;15.93;8.43;;;8.00;64.20;;;;;;5048915;28;20020;-65
2021/03/26 07:03:49;;;;;;;17.33;8.38;;;8.10;64.10;;;;;;5086064;28;20031;-65
2021/03/26 07:06:45;;;;;;;16.30;9.30;;;8.30;64.10;;;;;;5032609;28;20039;-65
2021/03/26 07:09:33;;;;;;;15.85;9.23;;;8.50;63.90;;;;;;5038718;28;20063;-65
2021/03/26 07:12:26;;;;;;;17.92;10.65;;;8.70;63.50;;;;;;5053581;28;20485;-63
2021/03/26 07:14:58;;;;;;;19.35;10.07;;;8.80;63.20;;;;;;5052073;28;20096;-64
2021/03/26 07:17:35;;;;;;;17.07;10.23;;;8.70;63.30;;;;;;5053326;28;20028;-65
2021/03/26 07:20:16;;;;;;;18.15;9.73;;;8.60;63.50;;;;;;5044639;28;20158;-64
2021/03/26 07:23:19;;;;;;;15.57;9.23;;;8.60;63.70;;;;;;5059967;28;20033;-65
2021/03/26 07:26:04;;;;;;;;;;;8.50;63.90;;;;;;5046988;28;20021;-64
2021/03/26 07:28:57;;;;;;;19.27;10.10;;;8.50;63.60;;;;;;5044870;28;19908;-64
2021/03/26 07:31:28;;;;;;;;;;;8.60;64.00;;;;;;5047626;28;20077;-64
2021/03/26 07:34:03;;;;;;;17.85;10.13;;;8.60;63.00;;;;;;5068993;28;20402;-64
2021/03/26 07:36:48;;;;;;;18.02;9.90;;;8.60;63.40;;;;;;5049892;28;20036;-65
2021/03/26 07:39:51;;;;;;;17.67;10.50;;;8.90;63.50;;;;;;5051859;28;20043;-64
2021/03/26 07:42:30;;;;;;;16.35;9.55;;;9.20;63.30;;;;;;5056815;28;20042;-65
2021/03/26 07:45:34;;;;;;;17.27;9.57;;;9.30;63.10;;;;;;5052292;28;20519;-64
2021/03/26 07:48:21;;;;;;;16.02;8.43;;;9.70;63.10;;;;;;5052835;28;20024;-64
2021/03/26 07:51:28;;;;;;;14.70;9.15;;;10.20;62.80;;;;;;5053141;28;20090;-64
2021/03/26 07:54:20;;;;;;;15.98;8.85;;;10.80;62.20;;;;;;4991712;28;20191;-65
2021/03/26 07:57:03;;;;;;;17.15;8.90;;;11.20;61.90;;;;;;5039091;28;20021;-66
2021/03/26 08:00:00;;;;;;;14.15;8.15;;;11.60;61.40;;;;;;5045342;28;20028;-67
2021/03/26 08:02:51;;;;;;;16.75;8.65;;;12.10;60.80;;;;;;5065393;28;20029;-67
2021/03/26 08:05:30;;;;;;;14.02;8.10;;;12.40;60.00;;;;;;5055563;28;20044;-65
2021/03/26 08:08:01;;;;;;;18.58;8.00;;;12.90;59.90;;;;;;5057850;28;20020;-67
2021/03/26 08:10:48;;;;;;;14.25;8.27;;;13.40;59.50;;;;;;5055599;28;20025;-65
2021/03/26 08:13:38;;;;;;;17.83;8.10;;;13.90;59.00;;;;;;5055427;28;20037;-66
2021/03/26 08:16:21;;;;;;;14.82;8.43;;;14.40;58.30;;;;;;5052744;28;20527;-67
2021/03/26 08:18:53;;;;;;;13.95;7.93;;;14.90;57.60;;;;;;5051737;28;20029;-66
2021/03/26 08:21:22;;;;;;;14.50;8.27;;;15.40;57.00;;;;;;5069829;28;20048;-65
2021/03/26 08:24:25;;;;;;;13.98;8.95;;;15.80;56.30;;;;;;5041572;28;20384;-68
2021/03/26 08:27:25;;;;;;;16.23;9.10;;;16.30;54.40;;;;;;5040533;28;20021;-66
2021/03/26 08:29:51;;;;;;;13.32;8.23;;;16.60;53.80;;;;;;5048407;28;20029;-65
2021/03/26 08:32:38;;;;;;;13.95;7.65;;;17.10;53.80;;;;;;5081488;28;20492;-66
2021/03/26 08:35:26;;;;;;;16.52;7.90;;;17.40;53.00;;;;;;5055884;28;20127;-66
2021/03/26 08:38:19;;;;;;;12.50;7.82;;;17.80;52.70;;;;;;5056802;28;20082;-66
2021/03/26 08:41:03;;;;;;;12.65;7.75;;;18.30;51.90;;;;;;5053217;28;20439;-65
2021/03/26 08:43:35;;;;;;;15.52;7.45;;;18.60;51.40;;;;;;5047366;28;20516;-64
2021/03/26 08:46:32;;;;;;;8.68;5.60;;;19.00;50.80;;;;;;5046513;28;20032;-66
2021/03/26 08:49:20;;;;;;;9.70;5.10;;;19.10;48.70;;;;;;5041935;28;20029;-64
2021/03/26 08:52:03;;;;;;;9.10;5.68;;;19.10;48.90;;;;;;5055953;28;20020;-64
2021/03/26 08:55:12;;;;;;;10.02;5.70;;;19.30;49.00;;;;;;5055554;28;20051;-64
2021/03/26 08:58:06;;;;;;;10.40;5.82;;;19.60;48.20;;;;;;5050704;28;20033;-64
2021/03/26 09:01:16;;;;;;;7.97;4.97;;;19.40;46.50;;;;;;5056905;28;20032;-64
2021/03/26 09:04:09;;;;;;;8.10;5.18;;;19.60;47.30;;;;;;5051111;28;20028;-64
2021/03/26 09:07:32;;;;;;;6.55;5.10;;;20.00;46.70;;;;;;5043314;28;20020;-65
2021/03/26 09:10:16;;;;;;;13.18;6.60;;;20.10;45.90;;;;;;4956237;28;20046;-64
2021/03/26 09:12:45;;;;;;;8.85;5.85;;;20.20;44.70;;;;;;4974973;28;20149;-64
2021/03/26 09:15:35;;;;;;;10.05;6.65;;;20.30;44.90;;;;;;5047367;28;20040;-63
2021/03/26 09:18:30;;;;;;;16.58;7.65;;;20.40;43.30;;;;;;5039860;28;20029;-63
2021/03/26 09:21:14;;;;;;;10.27;6.20;;;20.50;44.10;;;;;;5019940;28;20055;-64
2021/03/26 09:24:05;;;;;;;9.75;6.30;;;20.80;43.60;;;;;;5055148;28;20033;-63
2021/03/26 09:26:48;;;;;;;11.55;6.80;;;20.90;42.80;;;;;;5055970;28;20027;-64
2021/03/26 09:29:36;;;;;;;15.35;6.57;;;20.90;42.80;;;;;;5056336;28;20020;-65
2021/03/26 09:32:30;;;;;;;10.20;6.72;;;20.90;41.80;;;;;;5062886;28;20028;-64
2021/03/26 09:35:14;;;;;;;11.95;6.47;;;20.80;41.90;;;;;;5042900;28;20033;-65
2021/03/26 09:37:43;;;;;;;11.60;6.57;;;20.80;41.00;;;;;;5035588;28;20017;-66
2021/03/26 09:40:24;;;;;;;11.35;6.38;;;20.50;41.40;;;;;;5053952;28;20028;-66
2021/03/26 09:43:12;;;;;;;13.30;6.40;;;20.40;41.90;;;;;;5055525;28;20635;-65
2021/03/26 09:45:50;;;;;;;9.52;6.38;;;20.30;42.60;;;;;;5054720;28;20032;-65
2021/03/26 09:48:25;;;;;;;15.20;6.43;;;20.20;42.60;;;;;;5055075;28;20024;-65
2021/03/26 09:51:13;;;;;;;10.75;6.15;;;20.00;43.00;;;;;;5055539;28;20059;-66
2021/03/26 09:53:41;;;;;;;13.32;6.15;;;19.80;43.40;;;;;;5055209;28;20036;-65
2021/03/26 09:56:25;;;;;;;12.35;6.82;;;19.80;43.60;;;;;;5054844;28;20669;-65
2021/03/26 09:59:26;;;;;;;12.15;6.53;;;19.80;43.30;;;;;;5053406;28;20127;-65
2021/03/26 10:02:14;;;;;;;16.88;6.53;;;19.50;43.20;;;;;;5066511;28;20034;-65
2021/03/26 10:04:49;;;;;;;11.20;6.38;;;19.00;43.60;;;;;;5045815;28;20112;-65
2021/03/26 10:07:30;;;;;;;10.52;6.13;;;18.60;44.40;;;;;;5051531;28;20064;-65
2021/03/26 10:13:01;;;;;;;19.27;8.00;;;18.90;45.60;;;;;;5086151;28;20407;-64
2021/03/26 10:15:27;;;;;;;13.65;7.60;;;18.80;44.00;;;;;;5065299;28;20389;-65
2021/03/26 10:18:10;;;;;;;12.88;7.18;;;18.60;44.20;;;;;;5054756;28;20050;-66
2021/03/26 10:20:39;;;;;;;18.10;7.65;;;18.30;43.70;;;;;;5037895;28;20029;-65
2021/03/26 10:23:35;;;;;;;13.80;7.05;;;18.20;45.00;;;;;;5034565;28;20148;-65
2021/03/26 10:26:25;;;;;;;12.45;6.88;;;18.30;45.50;;;;;;5034151;28;20036;-64
2021/03/26 10:28:58;;;;;;;14.20;7.22;;;18.40;45.50;;;;;;5034956;28;20024;-65
2021/03/26 10:31:34;;;;;;;12.82;6.90;;;18.40;44.80;;;;;;5041754;28;20021;-64
2021/03/26 10:34:03;;;;;;;13.80;6.88;;;18.60;45.40;;;;;;5053393;28;20531;-64
2021/03/26 10:36:56;;;;;;;13.25;6.25;;;18.80;45.00;;;;;;5054665;28;20037;-67
2021/03/26 10:39:30;;;;;;;11.40;6.78;;;19.10;45.40;;;;;;5054375;28;20028;-67
2021/03/26 10:42:40;;;;;;;17.88;6.25;;;19.40;45.60;;;;;;5047591;28;20029;-65
2021/03/26 10:45:20;;;;;;;14.00;6.68;;;19.70;45.40;;;;;;5042694;28;20033;-67
2021/03/26 10:47:50;;;;;;;11.05;6.15;;;19.90;44.60;;;;;;5067632;28;20025;-67
2021/03/26 10:50:46;;;;;;;8.25;6.32;;;20.00;44.30;;;;;;5067255;28;20029;-67
2021/03/26 10:53:19;;;;;;;11.48;6.78;;;20.10;44.60;;;;;;5040325;28;20123;-66
2021/03/26 10:55:53;;;;;;;10.02;6.38;;;20.30;44.20;;;;;;5053970;28;20151;-67
2021/03/26 10:58:42;;;;;;;11.63;6.30;;;20.30;44.00;;;;;;5054018;28;20500;-66
2021/03/26 11:01:27;;;;;;;10.48;7.40;;;20.50;44.00;;;;;;5047313;28;20029;-66
2021/03/26 11:04:22;;;;;;;12.15;6.30;;;20.60;43.30;;;;;;5055714;28;20020;-66
2021/03/26 11:07:03;;;;;;;10.18;5.55;;;20.50;42.50;;;;;;5037333;28;20051;-66
2021/03/26 11:09:41;;;;;;;11.27;5.38;;;20.60;42.70;;;;;;5053013;28;20028;-66
2021/03/26 11:12:15;;;;;;;8.98;5.45;;;20.60;42.90;;;;;;5066714;28;20035;-66
2021/03/26 11:14:47;;;;;;;10.05;5.55;;;20.70;42.90;;;;;;5069802;28;20106;-66
2021/03/26 11:17:25;;;;;;;7.25;5.22;;;20.70;42.80;;;;;;5053573;28;20103;-67
2021/03/26 11:20:23;;;;;;;9.50;4.93;;;20.50;41.90;;;;;;5053566;28;20646;-67
2021/03/26 11:22:58;;;;;;;8.95;5.03;;;20.40;42.40;;;;;;5042064;28;20039;-67
2021/03/26 11:25:33;;;;;;;10.40;5.97;;;20.50;42.10;;;;;;5036442;28;20074;-65
2021/03/26 11:28:03;;;;;;;11.98;5.78;;;20.20;41.60;;;;;;5050226;28;20044;-67
2021/03/26 11:30:54;;;;;;;8.38;5.43;;;20.00;41.30;;;;;;5052370;28;20036;-67
2021/03/26 11:33:38;;;;;;;9.05;5.43;;;19.90;41.40;;;;;;5066800;28;20102;-66
2021/03/26 11:36:30;;;;;;;10.77;6.13;;;19.90;41.70;;;;;;5049481;28;20116;-65
2021/03/26 11:39:07;;;;;;;8.27;5.32;;;19.70;42.00;;;;;;5040801;28;20029;-67
2021/03/26 11:41:41;;;;;;;11.05;5.60;;;19.60;42.10;;;;;;5069643;28;20024;-67
2021/03/26 11:44:13;;;;;;;7.75;4.75;;;19.70;41.80;;;;;;5050582;28;20021;-66
2021/03/26 11:46:43;;;;;;;11.48;4.82;;;19.90;41.60;;;;;;5070268;28;20043;-65
2021/03/26 11:49:28;;;;;;;10.88;5.13;;;20.00;41.10;;;;;;5049312;28;21908;-66
2021/03/26 11:52:11;;;;;;;7.00;4.38;;;20.00;40.70;;;;;;5043559;28;20127;-67
2021/03/26 11:54:43;;;;;;;9.80;4.32;;;20.00;40.60;;;;;;5051871;28;20101;-67
2021/03/26 11:57:36;;;;;;;8.15;5.03;;;20.00;40.30;;;;;;5033830;28;20337;-66
2021/03/26 12:00:21;;;;;;;7.88;4.30;;;20.30;40.40;;;;;;5047716;28;20033;-67
2021/03/26 12:02:55;;;;;;;9.27;4.30;;;20.50;40.10;;;;;;5058443;28;20071;-65
2021/03/26 12:05:36;;;;;;;8.38;4.32;;;20.70;39.90;;;;;;5069411;28;20030;-67
2021/03/26 12:08:06;;;;;;;6.97;3.47;;;20.80;39.00;;;;;;5067182;28;20035;-67
2021/03/26 12:10:43;;;;;;;8.88;4.78;;;20.90;39.80;;;;;;5049469;28;20550;-67
2021/03/26 12:13:17;;;;;;;7.55;4.40;;;20.90;38.20;;;;;;5053122;28;20024;-67
2021/03/26 12:16:06;;;;;;;7.85;4.30;;;20.60;36.60;;;;;;5042124;28;20032;-66
2021/03/26 12:18:38;;;;;;;7.97;4.10;;;20.50;37.50;;;;;;5051150;28;20468;-67
2021/03/26 12:21:10;;;;;;;7.78;4.10;;;20.60;38.00;;;;;;5033437;28;20029;-68
2021/03/26 12:24:31;;;;;;;7.90;4.65;;;20.40;38.40;;;;;;5069587;28;20028;-68
2021/03/26 12:27:09;;;;;;;8.57;5.00;;;20.30;38.90;;;;;;5009143;28;20026;-68
2021/03/26 12:29:50;;;;;;;8.00;4.63;;;20.40;38.90;;;;;;5052523;28;20043;-67
2021/03/26 12:32:35;;;;;;;10.77;5.10;;;20.50;38.90;;;;;;5058906;28;20086;-68
2021/03/26 12:35:18;;;;;;;8.70;5.45;;;20.60;39.00;;;;;;5052758;28;20027;-67
2021/03/26 12:37:47;;;;;;;9.38;4.90;;;20.70;38.40;;;;;;5049525;28;20098;-67
2021/03/26 12:40:37;;;;;;;7.22;4.57;;;20.70;38.20;;;;;;5044891;28;20523;-67
2021/03/26 12:43:17;;;;;;;10.25;4.65;;;20.80;37.70;;;;;;5033522;28;20052;-67
2021/03/26 12:45:52;;;;;;;8.80;4.13;;;21.00;37.60;;;;;;5055406;28;20066;-67
2021/03/26 12:48:22;;;;;;;6.90;4.30;;;21.20;36.80;;;;;;5056572;28;20028;-66
2021/03/26 12:50:53;;;;;;;8.15;5.00;;;21.30;35.80;;;;;;5074947;28;20033;-67
2021/03/26 12:53:23;;;;;;;10.60;4.85;;;21.10;35.80;;;;;;5074714;28;20021;-67
2021/03/26 12:56:12;;;;;;;8.52;5.18;;;20.90;35.80;;;;;;5056455;28;20468;-68
2021/03/26 12:59:09;;;;;;;11.57;5.07;;;20.50;35.90;;;;;;5061416;28;20469;-69
2021/03/26 13:01:57;;;;;;;11.35;6.18;;;20.10;36.70;;;;;;5051369;28;20016;-67
2021/03/26 13:04:22;;;;;;;11.65;4.55;;;20.20;37.00;;;;;;5067764;28;20107;-67
2021/03/26 13:06:49;;;;;;;6.70;4.10;;;20.40;37.60;;;;;;5060809;28;20497;-68
2021/03/26 13:09:34;;;;;;;7.40;4.03;;;20.60;37.80;;;;;;5042968;28;20036;-69
2021/03/26 13:12:12;;;;;;;6.45;3.38;;;20.50;36.60;;;;;;5056295;28;20108;-68
2021/03/26 13:15:12;;;;;;;6.70;3.80;;;20.30;36.80;;;;;;5055846;28;20035;-68
2021/03/26 13:17:38;;;;;;;6.05;3.78;;;20.30;36.80;;;;;;5053783;28;20433;-68
2021/03/26 13:20:09;;;;;;;9.85;3.63;;;20.50;38.10;;;;;;5036343;28;20071;-68
2021/03/26 13:22:47;;;;;;;5.50;4.00;;;20.80;37.00;;;;;;5036150;28;20032;-68
2021/03/26 13:25:43;;;;;;;53.17;32.90;;;21.10;36.70;;;;;;5042338;28;20017;-67
2021/03/26 13:28:24;;;;;;;6.50;4.18;;;21.50;37.00;;;;;;5047162;28;20055;-69
2021/03/26 13:31:12;;;;;;;7.50;3.55;;;22.00;36.40;;;;;;5038116;28;20025;-68
2021/03/26 13:34:02;;;;;;;5.38;3.22;;;22.20;35.30;;;;;;5047563;28;20108;-67
2021/03/26 13:36:40;;;;;;;6.40;3.45;;;22.40;34.60;;;;;;5049933;28;20028;-68
2021/03/26 13:39:23;;;;;;;6.85;3.88;;;22.30;33.20;;;;;;5071292;28;20545;-68
2021/03/26 13:41:57;;;;;;;4.93;3.42;;;22.10;32.20;;;;;;5075943;28;20055;-68
2021/03/26 13:44:51;;;;;;;8.00;3.20;;;21.60;33.30;;;;;;5055386;28;20025;-68
2021/03/26 13:47:22;;;;;;;8.25;3.38;;;21.50;34.10;;;;;;5047603;28;20158;-68
2021/03/26 13:50:17;;;;;;;6.10;3.40;;;21.80;34.10;;;;;;5055342;28;20480;-67
2021/03/26 13:52:51;;;;;;;7.45;3.90;;;22.10;34.00;;;;;;5065186;28;20043;-68